createdAt,value
2023-01-13T00:00:58.950Z,6.27
2023-01-13T00:03:26.474Z,6.80
2023-01-13T00:05:53.662Z,5.50
2023-01-13T00:08:20.893Z,6.23
2023-01-13T00:10:48.541Z,5.33
2023-01-13T00:13:15.839Z,6.27
2023-01-13T00:15:43.277Z,6.27
2023-01-13T00:18:10.536Z,5.53
2023-01-13T00:20:37.749Z,7.90
2023-01-13T00:23:04.962Z,3.70
2023-01-13T00:25:32.133Z,5.43
2023-01-13T00:27:59.305Z,5.00
2023-01-13T00:30:27.710Z,4.77
2023-01-13T00:32:54.980Z,4.33
2023-01-13T00:35:22.178Z,4.57
2023-01-13T00:37:49.363Z,4.70
2023-01-13T00:40:16.549Z,4.43
2023-01-13T00:43:02.324Z,4.27
2023-01-13T00:45:29.600Z,4.93
2023-01-13T00:47:56.795Z,5.80
2023-01-13T00:50:24.235Z,2.93
2023-01-13T00:52:51.512Z,5.00
2023-01-13T00:55:18.703Z,5.33
2023-01-13T00:57:45.853Z,8.00
2023-01-13T01:00:13.238Z,3.47
2023-01-13T01:02:40.475Z,3.30
2023-01-13T01:05:08.039Z,4.00
2023-01-13T01:07:35.236Z,6.03
2023-01-13T01:10:02.776Z,7.20
2023-01-13T01:12:29.925Z,3.50
2023-01-13T01:14:57.171Z,2.80
2023-01-13T01:17:24.356Z,3.57
2023-01-13T01:19:51.514Z,5.33
2023-01-13T01:22:18.711Z,6.60
2023-01-13T01:24:46.003Z,4.13
2023-01-13T01:27:13.158Z,4.67
2023-01-13T01:29:40.306Z,3.07
2023-01-13T01:32:07.499Z,5.03
2023-01-13T01:34:35.704Z,5.43
2023-01-13T01:37:02.942Z,3.80
2023-01-13T01:39:30.172Z,5.47
2023-01-13T01:42:16.242Z,5.20
2023-01-13T01:44:43.434Z,3.27
2023-01-13T01:47:12.907Z,3.90
2023-01-13T01:49:40.379Z,5.10
2023-01-13T01:52:10.078Z,5.90
2023-01-13T01:54:43.357Z,6.10
2023-01-13T01:57:12.860Z,4.70
2023-01-13T01:59:40.255Z,4.50
2023-01-13T02:02:07.696Z,5.27
2023-01-13T02:04:36.888Z,4.93
2023-01-13T02:07:04.553Z,6.33
2023-01-13T02:09:31.857Z,3.87
2023-01-13T02:12:18.012Z,4.50
2023-01-13T02:14:45.853Z,5.47
2023-01-13T02:17:16.521Z,4.10
2023-01-13T02:19:59.233Z,4.57
2023-01-13T02:22:26.424Z,4.23
2023-01-13T02:25:03.092Z,5.57
2023-01-13T02:27:37.086Z,5.70
2023-01-13T02:30:26.124Z,6.40
2023-01-13T02:32:59.578Z,4.67
2023-01-13T02:35:45.199Z,5.27
2023-01-13T02:38:13.999Z,4.30
2023-01-13T02:40:44.390Z,5.03
2023-01-13T02:43:34.297Z,4.20
2023-01-13T02:46:08.970Z,6.37
2023-01-13T02:48:37.562Z,4.20
2023-01-13T02:51:06.832Z,4.23
2023-01-13T02:53:42.515Z,3.83
2023-01-13T02:56:10.640Z,5.00
2023-01-13T02:58:39.694Z,3.50
2023-01-13T03:01:06.969Z,7.43
2023-01-13T03:03:34.235Z,4.60
2023-01-13T03:06:09.156Z,4.60
2023-01-13T03:08:43.065Z,4.57
2023-01-13T03:11:12.484Z,8.23
2023-01-13T03:13:56.376Z,6.50
2023-01-13T03:16:24.030Z,6.40
2023-01-13T03:19:00.266Z,6.30
2023-01-13T03:21:34.348Z,5.17
2023-01-13T03:24:04.349Z,7.27
2023-01-13T03:26:46.150Z,4.17
2023-01-13T03:29:21.336Z,6.20
2023-01-13T03:31:58.286Z,5.90
2023-01-13T03:34:31.110Z,3.63
2023-01-13T03:36:58.668Z,5.43
2023-01-13T03:39:30.418Z,5.80
2023-01-13T03:42:00.053Z,3.87
2023-01-13T03:44:35.386Z,4.40
2023-01-13T03:47:05.428Z,5.17
2023-01-13T03:49:39.677Z,4.20
2023-01-13T03:52:09.296Z,6.03
2023-01-13T03:54:40.493Z,4.10
2023-01-13T03:57:09.879Z,5.40
2023-01-13T03:59:42.164Z,5.57
2023-01-13T04:02:15.323Z,4.97
2023-01-13T04:05:03.466Z,5.40
2023-01-13T04:07:40.319Z,6.20
2023-01-13T04:10:09.923Z,4.23
2023-01-13T04:13:00.445Z,3.57
2023-01-13T04:15:29.772Z,4.20
2023-01-13T04:18:03.027Z,6.43
2023-01-13T04:20:30.176Z,9.63
2023-01-13T04:22:57.353Z,5.73
2023-01-13T04:25:24.582Z,7.10
2023-01-13T04:27:51.901Z,5.27
2023-01-13T04:30:19.137Z,8.07
2023-01-13T04:32:46.315Z,4.30
2023-01-13T04:35:13.486Z,5.93
2023-01-13T04:37:40.858Z,4.40
2023-01-13T04:40:08.493Z,9.40
2023-01-13T04:42:35.651Z,9.77
2023-01-13T04:45:02.911Z,6.13
2023-01-13T04:47:30.078Z,17.80
2023-01-13T04:49:57.287Z,10.03
2023-01-13T04:52:24.501Z,3.80
2023-01-13T04:54:51.737Z,5.63
2023-01-13T04:57:18.920Z,4.97
2023-01-13T04:59:46.144Z,6.43
2023-01-13T05:02:19.947Z,2.67
2023-01-13T05:04:48.006Z,4.33
2023-01-13T05:07:16.382Z,6.67
2023-01-13T05:09:43.613Z,7.97
2023-01-13T05:12:30.456Z,3.40
2023-01-13T05:15:16.587Z,3.70
2023-01-13T05:17:44.149Z,8.67
2023-01-13T05:20:11.721Z,4.23
2023-01-13T05:22:57.236Z,6.53
2023-01-13T05:25:25.351Z,7.37
2023-01-13T05:27:53.785Z,5.27
2023-01-13T05:30:22.124Z,4.17
2023-01-13T05:32:49.355Z,8.37
2023-01-13T05:35:17.059Z,10.60
2023-01-13T05:37:44.768Z,4.40
2023-01-13T05:40:31.752Z,5.03
2023-01-13T05:43:20.915Z,3.47
2023-01-13T05:45:51.194Z,3.73
2023-01-13T05:48:19.616Z,4.80
2023-01-13T05:50:47.456Z,5.10
2023-01-13T05:53:14.684Z,8.17
2023-01-13T05:55:42.449Z,6.27
2023-01-13T05:58:10.458Z,6.83
2023-01-13T06:00:37.652Z,5.23
2023-01-13T06:03:05.368Z,4.40
2023-01-13T06:05:32.931Z,4.47
2023-01-13T06:08:00.879Z,2.97
2023-01-13T06:10:29.255Z,5.17
2023-01-13T06:12:56.652Z,6.33
2023-01-13T06:15:24.630Z,7.30
2023-01-13T06:17:51.863Z,3.67
2023-01-13T06:20:19.249Z,3.73
2023-01-13T06:22:48.857Z,3.10
2023-01-13T06:25:34.578Z,3.70
2023-01-13T06:28:01.914Z,5.07
2023-01-13T06:30:31.057Z,3.30
2023-01-13T06:32:59.616Z,3.23
2023-01-13T06:35:29.602Z,2.80
2023-01-13T06:37:58.786Z,3.00
2023-01-13T06:40:26.162Z,3.63
2023-01-13T06:43:16.171Z,3.37
2023-01-13T06:45:57.129Z,4.27
2023-01-13T06:48:25.878Z,4.03
2023-01-13T06:50:53.057Z,7.53
2023-01-13T06:53:20.592Z,7.17
2023-01-13T06:55:47.910Z,6.17
2023-01-13T06:58:15.061Z,7.23
2023-01-13T07:00:42.406Z,4.73
2023-01-13T07:03:13.846Z,4.30
2023-01-13T07:05:41.733Z,6.37
2023-01-13T07:08:10.019Z,3.63
2023-01-13T07:10:37.545Z,4.43
2023-01-13T07:13:34.825Z,7.90
2023-01-13T07:16:03.365Z,3.77
2023-01-13T07:18:32.074Z,5.70
2023-01-13T07:21:00.612Z,4.17
2023-01-13T07:23:28.740Z,3.40
2023-01-13T07:25:59.663Z,3.60
2023-01-13T07:28:27.483Z,4.83
2023-01-13T07:30:55.093Z,4.67
2023-01-13T07:33:22.283Z,9.17
2023-01-13T07:35:49.941Z,6.10
2023-01-13T07:38:17.077Z,3.13
2023-01-13T07:40:44.202Z,3.30
2023-01-13T07:43:31.758Z,5.13
2023-01-13T07:46:06.330Z,7.57
2023-01-13T07:48:34.627Z,5.43
2023-01-13T07:51:02.786Z,4.60
2023-01-13T07:53:30.078Z,5.30
2023-01-13T07:55:57.767Z,5.17
2023-01-13T07:58:25.420Z,4.13
2023-01-13T08:00:53.341Z,4.30
2023-01-13T08:03:20.609Z,4.60
2023-01-13T08:05:48.387Z,3.60
2023-01-13T08:08:15.937Z,4.87
2023-01-13T08:10:43.150Z,3.77
2023-01-13T08:13:19.992Z,5.00
2023-01-13T08:15:51.502Z,3.80
2023-01-13T08:18:21.949Z,5.00
2023-01-13T08:20:49.588Z,6.47
2023-01-13T08:23:16.901Z,3.23
2023-01-13T08:25:44.135Z,5.53
2023-01-13T08:28:11.943Z,5.67
2023-01-13T08:30:39.267Z,7.07
2023-01-13T08:33:10.477Z,4.57
2023-01-13T08:35:38.344Z,5.17
2023-01-13T08:38:06.128Z,5.93
2023-01-13T08:40:33.929Z,4.90
2023-01-13T08:43:01.586Z,4.30
2023-01-13T08:45:28.759Z,6.07
2023-01-13T08:47:55.966Z,4.60
2023-01-13T08:50:23.129Z,4.37
2023-01-13T08:52:50.346Z,4.80
2023-01-13T08:55:17.936Z,4.80
2023-01-13T08:57:45.105Z,8.10
2023-01-13T09:00:12.786Z,8.60
2023-01-13T09:02:40.117Z,7.27
2023-01-13T09:05:08.398Z,7.17
2023-01-13T09:07:36.514Z,6.70
2023-01-13T09:10:05.006Z,6.20
2023-01-13T09:12:51.022Z,5.67
2023-01-13T09:15:18.656Z,11.37
2023-01-13T09:17:46.340Z,5.03
2023-01-13T09:20:13.863Z,5.87
2023-01-13T09:22:41.512Z,7.87
2023-01-13T09:25:09.045Z,6.43
2023-01-13T09:27:36.491Z,5.63
2023-01-13T09:30:03.768Z,6.63
2023-01-13T09:32:31.127Z,5.27
2023-01-13T09:35:01.241Z,4.90
2023-01-13T09:37:29.730Z,6.47
2023-01-13T09:39:56.941Z,5.30
2023-01-13T09:42:43.014Z,4.13
2023-01-13T09:45:14.131Z,9.03
2023-01-13T09:47:47.252Z,3.80
2023-01-13T09:50:15.758Z,5.43
2023-01-13T09:52:43.647Z,4.33
2023-01-13T09:55:15.433Z,5.37
2023-01-13T09:57:42.812Z,5.40
2023-01-13T10:00:30.291Z,5.30
2023-01-13T10:03:16.541Z,5.07
2023-01-13T10:05:45.847Z,4.13
2023-01-13T10:08:14.408Z,8.90
2023-01-13T10:10:43.692Z,6.63
2023-01-13T10:13:31.176Z,11.53
2023-01-13T10:16:06.813Z,6.93
2023-01-13T10:18:55.101Z,5.90
2023-01-13T10:21:36.062Z,3.83
2023-01-13T10:24:09.403Z,8.30
2023-01-13T10:26:48.945Z,4.63
2023-01-13T10:29:20.701Z,4.47
2023-01-13T10:31:48.132Z,5.00
2023-01-13T10:34:17.094Z,4.63
2023-01-13T10:37:07.585Z,5.03
2023-01-13T10:39:41.798Z,5.93
2023-01-13T10:42:13.943Z,5.13
2023-01-13T10:44:48.279Z,6.97
2023-01-13T10:47:21.755Z,6.33
2023-01-13T10:50:05.654Z,4.93
2023-01-13T10:52:37.567Z,6.63
2023-01-13T10:55:06.293Z,6.27
2023-01-13T10:57:37.302Z,7.43
2023-01-13T11:00:05.559Z,7.33
2023-01-13T11:02:33.969Z,6.03
2023-01-13T11:05:11.399Z,5.57
2023-01-13T11:07:46.797Z,6.07
2023-01-13T11:10:19.886Z,7.27
2023-01-13T11:12:56.194Z,4.97
2023-01-13T11:15:25.681Z,6.73
2023-01-13T11:18:00.403Z,7.30
2023-01-13T11:20:41.370Z,5.97
2023-01-13T11:23:28.797Z,4.43
2023-01-13T11:25:59.386Z,8.23
2023-01-13T11:28:41.934Z,5.23
2023-01-13T11:31:12.396Z,4.37
2023-01-13T11:33:42.472Z,5.17
2023-01-13T11:36:09.731Z,6.30
2023-01-13T11:38:52.200Z,6.27
2023-01-13T11:41:38.094Z,5.10
2023-01-13T11:44:08.495Z,7.73
2023-01-13T11:46:35.930Z,7.07
2023-01-13T11:49:03.944Z,8.03
2023-01-13T11:51:34.843Z,4.77
2023-01-13T11:54:17.417Z,6.13
2023-01-13T11:56:47.795Z,4.97
2023-01-13T11:59:14.931Z,6.40
2023-01-13T12:01:45.011Z,8.70
2023-01-13T12:04:30.479Z,6.37
2023-01-13T12:07:07.345Z,6.27
2023-01-13T12:09:44.928Z,5.50
2023-01-13T12:12:22.220Z,6.77
2023-01-13T12:14:49.453Z,5.33
2023-01-13T12:17:23.654Z,6.37
2023-01-13T12:19:51.531Z,13.43
2023-01-13T12:22:18.718Z,15.53
2023-01-13T12:24:49.347Z,18.67
2023-01-13T12:27:25.677Z,13.37
2023-01-13T12:29:55.625Z,11.87
2023-01-13T12:32:33.991Z,20.30
2023-01-13T12:35:24.772Z,18.77
2023-01-13T12:37:55.412Z,12.70
2023-01-13T12:40:43.961Z,15.53
2023-01-13T12:43:37.465Z,14.30
2023-01-13T12:46:21.134Z,11.20
2023-01-13T12:48:56.535Z,13.50
2023-01-13T12:51:27.922Z,10.47
2023-01-13T12:53:58.634Z,12.83
2023-01-13T12:56:40.318Z,13.33
2023-01-13T12:59:19.925Z,10.20
2023-01-13T13:01:48.277Z,7.67
2023-01-13T13:04:19.019Z,5.33
2023-01-13T13:06:54.032Z,5.63
2023-01-13T13:09:29.351Z,10.10
2023-01-13T13:11:59.342Z,6.10
2023-01-13T13:14:38.640Z,5.40
2023-01-13T13:17:21.403Z,6.97
2023-01-13T13:19:49.644Z,10.07
2023-01-13T13:22:18.109Z,10.17
2023-01-13T13:24:51.566Z,13.00
2023-01-13T13:27:24.651Z,10.63
2023-01-13T13:29:57.828Z,12.30
2023-01-13T13:32:27.911Z,16.80
2023-01-13T13:35:04.373Z,15.27
2023-01-13T13:38:11.791Z,10.67
2023-01-13T13:41:02.173Z,13.93
2023-01-13T13:43:50.640Z,10.07
2023-01-13T13:46:45.519Z,7.53
2023-01-13T13:49:13.329Z,9.03
2023-01-13T13:51:45.149Z,7.80
2023-01-13T13:54:14.581Z,6.40
2023-01-13T13:56:44.734Z,7.27
2023-01-13T13:59:13.011Z,9.70
2023-01-13T14:01:41.612Z,6.03
2023-01-13T14:04:22.455Z,4.27
2023-01-13T14:06:53.742Z,5.80
2023-01-13T14:09:21.703Z,5.37
2023-01-13T14:11:56.748Z,6.73
2023-01-13T14:14:25.115Z,9.63
2023-01-13T14:16:52.520Z,8.30
2023-01-13T14:19:45.576Z,7.87
2023-01-13T14:22:16.362Z,6.80
2023-01-13T14:24:47.829Z,7.27
2023-01-13T14:27:16.697Z,6.03
2023-01-13T14:29:44.260Z,6.20
2023-01-13T14:32:15.575Z,7.97
2023-01-13T14:34:42.764Z,7.37
2023-01-13T14:37:26.307Z,6.23
2023-01-13T14:39:53.567Z,6.03
2023-01-13T14:42:21.596Z,5.03
2023-01-13T14:44:50.692Z,5.80
2023-01-13T14:47:18.027Z,5.63
2023-01-13T14:49:54.988Z,6.50
2023-01-13T14:52:23.799Z,7.67
2023-01-13T14:54:52.874Z,8.53
2023-01-13T14:57:31.894Z,7.67
2023-01-13T15:00:19.386Z,6.87
2023-01-13T15:02:58.733Z,4.23
2023-01-13T15:05:26.001Z,4.57
2023-01-13T15:07:56.317Z,6.30
2023-01-13T15:10:33.951Z,4.53
2023-01-13T15:13:03.070Z,8.33
2023-01-13T15:15:37.459Z,8.87
2023-01-13T15:18:14.869Z,6.23
2023-01-13T15:20:42.636Z,7.10
2023-01-13T15:23:10.157Z,6.57
2023-01-13T15:25:41.639Z,6.53
2023-01-13T15:28:15.290Z,7.23
2023-01-13T15:30:42.507Z,10.50
2023-01-13T15:33:10.234Z,12.33
2023-01-13T15:35:38.347Z,9.30
2023-01-13T15:38:10.989Z,6.80
2023-01-13T15:40:38.463Z,6.37
2023-01-13T15:43:24.615Z,8.27
2023-01-13T15:46:10.793Z,5.90
2023-01-13T15:48:38.302Z,7.93
2023-01-13T15:51:05.676Z,5.50
2023-01-13T15:53:36.848Z,7.43
2023-01-13T15:56:05.759Z,6.60
2023-01-13T15:58:32.970Z,4.33
2023-01-13T16:01:00.243Z,7.47
2023-01-13T16:03:27.884Z,6.43
2023-01-13T16:05:55.173Z,7.50
2023-01-13T16:08:23.528Z,5.97
2023-01-13T16:10:51.075Z,6.43
2023-01-13T16:13:18.519Z,7.80
2023-01-13T16:15:49.642Z,7.27
2023-01-13T16:18:24.682Z,9.80
2023-01-13T16:20:53.548Z,8.63
2023-01-13T16:23:20.976Z,8.60
2023-01-13T16:25:48.381Z,7.23
2023-01-13T16:28:26.689Z,8.27
2023-01-13T16:30:53.889Z,8.83
2023-01-13T16:33:21.134Z,6.77
2023-01-13T16:36:09.930Z,9.63
2023-01-13T16:38:37.061Z,8.17
2023-01-13T16:41:04.457Z,9.93
2023-01-13T16:43:32.392Z,11.97
2023-01-13T16:45:59.785Z,13.77
2023-01-13T16:48:27.182Z,24.97
2023-01-13T16:50:54.861Z,23.10
2023-01-13T16:53:22.220Z,25.93
2023-01-13T16:55:49.467Z,20.00
2023-01-13T16:58:18.734Z,17.73
2023-01-13T17:00:49.216Z,20.07
2023-01-13T17:03:17.184Z,22.23
2023-01-13T17:05:46.777Z,16.73
2023-01-13T17:08:20.487Z,12.87
2023-01-13T17:10:48.029Z,19.17
2023-01-13T17:13:16.947Z,19.73
2023-01-13T17:15:44.944Z,13.93
2023-01-13T17:18:13.767Z,13.07
2023-01-13T17:20:41.051Z,10.00
2023-01-13T17:23:08.490Z,16.50
2023-01-13T17:25:35.680Z,18.20
2023-01-13T17:28:02.961Z,16.20
2023-01-13T17:30:30.239Z,19.27
2023-01-13T17:32:57.714Z,14.00
2023-01-13T17:35:25.469Z,12.07
2023-01-13T17:37:53.602Z,27.70
2023-01-13T17:40:21.151Z,39.20
2023-01-13T17:42:48.424Z,24.57
2023-01-13T17:45:16.336Z,24.23
2023-01-13T17:47:43.545Z,30.77
2023-01-13T17:50:11.344Z,27.13
2023-01-13T17:52:38.588Z,20.90
2023-01-13T17:55:06.080Z,20.30
2023-01-13T17:57:33.343Z,16.47
2023-01-13T18:00:00.579Z,14.83
2023-01-13T18:02:30.176Z,24.33
2023-01-13T18:04:57.458Z,16.87
2023-01-13T18:07:24.606Z,14.17
2023-01-13T18:09:51.799Z,11.70
2023-01-13T18:12:18.997Z,13.87
2023-01-13T18:14:46.222Z,13.73
2023-01-13T18:17:13.428Z,11.40
2023-01-13T18:19:59.423Z,13.37
2023-01-13T18:22:45.585Z,15.93
2023-01-13T18:25:31.813Z,14.43
2023-01-13T18:28:02.927Z,17.73
2023-01-13T18:30:30.435Z,15.90
2023-01-13T18:32:58.120Z,15.97
2023-01-13T18:35:25.528Z,21.37
2023-01-13T18:37:52.688Z,14.73
2023-01-13T18:40:19.974Z,12.30
2023-01-13T18:42:56.173Z,11.30
2023-01-13T18:45:30.895Z,12.00
2023-01-13T18:47:59.602Z,10.17
2023-01-13T18:50:28.253Z,10.00
2023-01-13T18:52:55.568Z,12.33
2023-01-13T18:55:22.873Z,14.50
2023-01-13T18:57:50.706Z,12.60
2023-01-13T19:00:19.573Z,11.60
2023-01-13T19:02:47.471Z,11.63
2023-01-13T19:05:15.014Z,15.83
2023-01-13T19:07:46.291Z,13.40
2023-01-13T19:10:13.594Z,12.13
2023-01-13T19:12:40.822Z,12.07
2023-01-13T19:15:08.932Z,12.57
2023-01-13T19:17:36.504Z,15.17
2023-01-13T19:20:05.261Z,18.10
2023-01-13T19:22:34.127Z,15.97
2023-01-13T19:25:02.208Z,19.73
2023-01-13T19:27:29.827Z,19.57
2023-01-13T19:30:00.173Z,16.00
2023-01-13T19:32:28.694Z,13.03
2023-01-13T19:34:59.374Z,12.47
2023-01-13T19:37:34.632Z,12.13
2023-01-13T19:40:01.978Z,12.77
2023-01-13T19:42:48.087Z,12.93
2023-01-13T19:45:28.249Z,12.70
2023-01-13T19:47:57.124Z,10.73
2023-01-13T19:50:24.754Z,15.30
2023-01-13T19:52:52.312Z,14.53
2023-01-13T19:55:19.846Z,13.77
2023-01-13T19:57:47.157Z,11.33
2023-01-13T20:00:20.421Z,14.27
2023-01-13T20:02:49.529Z,14.97
2023-01-13T20:05:22.285Z,13.13
2023-01-13T20:07:49.988Z,18.13
2023-01-13T20:10:17.586Z,13.17
2023-01-13T20:12:44.820Z,16.30
2023-01-13T20:15:12.207Z,9.30
2023-01-13T20:17:40.699Z,8.93
2023-01-13T20:20:09.003Z,10.73
2023-01-13T20:22:37.496Z,7.00
2023-01-13T20:25:05.108Z,13.63
2023-01-13T20:27:32.476Z,6.13
2023-01-13T20:29:59.715Z,11.90
2023-01-13T20:32:26.928Z,7.43
2023-01-13T20:34:54.139Z,6.43
2023-01-13T20:37:21.448Z,14.90
2023-01-13T20:39:48.737Z,11.77
2023-01-13T20:42:32.096Z,9.93
2023-01-13T20:45:00.113Z,10.83
2023-01-13T20:47:28.292Z,23.60
2023-01-13T20:49:56.233Z,11.23
2023-01-13T20:52:23.691Z,7.43
2023-01-13T20:54:50.910Z,5.97
2023-01-13T20:57:18.430Z,10.60
2023-01-13T20:59:45.694Z,12.17
2023-01-13T21:02:14.415Z,9.43
2023-01-13T21:04:42.011Z,8.43
2023-01-13T21:07:09.349Z,5.83
2023-01-13T21:09:36.931Z,9.60
2023-01-13T21:12:23.204Z,10.97
2023-01-13T21:15:09.033Z,10.37
2023-01-13T21:17:55.388Z,12.40
2023-01-13T21:20:22.716Z,11.67
2023-01-13T21:22:50.113Z,6.87
2023-01-13T21:25:18.465Z,15.67
2023-01-13T21:27:45.762Z,7.63
2023-01-13T21:30:15.026Z,9.73
2023-01-13T21:32:43.124Z,5.57
2023-01-13T21:35:10.523Z,9.20
2023-01-13T21:37:38.501Z,9.60
2023-01-13T21:40:06.890Z,5.73
2023-01-13T21:42:52.961Z,10.23
2023-01-13T21:45:38.979Z,5.70
2023-01-13T21:48:07.174Z,4.87
2023-01-13T21:50:34.464Z,10.40
2023-01-13T21:53:01.699Z,5.97
2023-01-13T21:55:29.236Z,5.07
2023-01-13T21:57:57.959Z,5.30
2023-01-13T22:00:26.880Z,8.93
2023-01-13T22:02:54.347Z,9.93
2023-01-13T22:05:22.558Z,5.73
2023-01-13T22:07:50.448Z,5.83
2023-01-13T22:10:21.846Z,5.57
2023-01-13T22:12:49.610Z,5.53
2023-01-13T22:15:18.063Z,8.53
2023-01-13T22:17:48.344Z,5.43
2023-01-13T22:20:15.646Z,5.00
2023-01-13T22:22:43.100Z,6.20
2023-01-13T22:25:12.027Z,6.00
2023-01-13T22:27:40.506Z,6.17
2023-01-13T22:30:09.101Z,10.07
2023-01-13T22:32:38.512Z,8.17
2023-01-13T22:35:06.365Z,4.80
2023-01-13T22:37:33.630Z,7.07
2023-01-13T22:40:00.848Z,7.77
2023-01-13T22:42:28.068Z,4.03
2023-01-13T22:44:55.269Z,4.87
2023-01-13T22:47:22.512Z,10.67
2023-01-13T22:49:49.715Z,5.13
2023-01-13T22:52:17.749Z,7.13
2023-01-13T22:54:45.137Z,6.80
2023-01-13T22:57:12.649Z,2.87
2023-01-13T22:59:39.810Z,5.97
2023-01-13T23:02:07.084Z,6.00
2023-01-13T23:04:34.370Z,7.53
2023-01-13T23:07:01.653Z,5.30
2023-01-13T23:09:31.657Z,6.40
2023-01-13T23:11:59.526Z,8.90
2023-01-13T23:14:27.114Z,8.90
2023-01-13T23:16:54.718Z,8.83
2023-01-13T23:19:24.594Z,7.93
2023-01-13T23:21:51.797Z,5.73
2023-01-13T23:24:18.983Z,4.67
2023-01-13T23:26:46.201Z,9.60
2023-01-13T23:29:14.024Z,8.40
2023-01-13T23:31:41.206Z,6.63
2023-01-13T23:34:08.738Z,7.60
2023-01-13T23:36:41.060Z,8.23
2023-01-13T23:39:08.439Z,6.50
2023-01-13T23:41:35.741Z,8.03
2023-01-13T23:44:02.963Z,7.43
2023-01-13T23:46:32.673Z,6.27
2023-01-13T23:49:00.109Z,5.27
2023-01-13T23:51:29.970Z,7.33
2023-01-13T23:53:57.964Z,10.53
2023-01-13T23:56:26.571Z,3.87
2023-01-13T23:58:53.815Z,5.87
